createdAt,value
2023-09-27T00:00:15.027Z,100361.78
2023-09-27T00:02:46.540Z,100369.84
2023-09-27T00:05:14.528Z,100353.78
2023-09-27T00:07:42.401Z,100354.25
2023-09-27T00:10:11.203Z,100360.19
2023-09-27T00:12:39.502Z,100354.72
2023-09-27T00:15:09.126Z,100361.25
2023-09-27T00:17:36.763Z,100354.34
2023-09-27T00:20:04.935Z,100355.63
2023-09-27T00:22:32.510Z,100353.56
2023-09-27T00:25:00.605Z,100354.41
2023-09-27T00:27:28.432Z,100353.56
2023-09-27T00:29:57.343Z,100356.88
2023-09-27T00:32:25.514Z,100358.56
2023-09-27T00:34:53.058Z,100353.09
2023-09-27T00:37:23.734Z,100355.37
2023-09-27T00:39:51.835Z,100354.56
2023-09-27T00:42:24.599Z,100356.47
2023-09-27T00:44:52.456Z,100352.06
2023-09-27T00:47:19.948Z,100358.13
2023-09-27T00:49:47.571Z,100359.78
2023-09-27T00:52:16.555Z,100355.84
2023-09-27T00:54:44.878Z,100357.97
2023-09-27T00:57:12.536Z,100354.41
2023-09-27T00:59:40.989Z,100355.22
2023-09-27T01:02:08.546Z,100354.97
2023-09-27T01:04:36.056Z,100351.41
2023-09-27T01:07:03.947Z,100356.31
2023-09-27T01:09:32.847Z,100353.78
2023-09-27T01:12:00.332Z,100351.88
2023-09-27T01:14:28.366Z,100355.69
2023-09-27T01:16:55.952Z,100355.47
2023-09-27T01:19:23.575Z,100353.56
2023-09-27T01:21:51.334Z,100360.69
2023-09-27T01:24:19.168Z,100360.69
2023-09-27T01:26:47.808Z,100360.69
2023-09-27T01:29:15.607Z,100359.88
2023-09-27T01:31:43.339Z,100362.34
2023-09-27T01:34:14.426Z,100362.59
2023-09-27T01:36:43.917Z,100365.34
2023-09-27T01:39:11.454Z,100359.25
2023-09-27T01:41:38.941Z,100360.69
2023-09-27T01:44:06.891Z,100360.94
2023-09-27T01:46:34.484Z,100366.63
2023-09-27T01:49:01.967Z,100361.97
2023-09-27T01:51:30.349Z,100352.34
2023-09-27T01:53:57.833Z,100357.81
2023-09-27T01:56:25.432Z,100357.00
2023-09-27T01:58:53.482Z,100359.72
2023-09-27T02:01:21.288Z,100365.41
2023-09-27T02:03:49.343Z,100355.09
2023-09-27T02:06:16.937Z,100357.00
2023-09-27T02:08:44.440Z,100358.28
2023-09-27T02:11:13.940Z,100364.59
2023-09-27T02:13:41.541Z,100359.34
2023-09-27T02:16:09.856Z,100354.72
2023-09-27T02:18:38.013Z,100359.13
2023-09-27T02:21:05.824Z,100364.81
2023-09-27T02:23:34.182Z,100363.06
2023-09-27T02:26:01.730Z,100365.78
2023-09-27T02:28:29.472Z,100362.09
2023-09-27T02:30:58.005Z,100359.94
2023-09-27T02:33:27.822Z,100361.25
2023-09-27T02:35:56.294Z,100360.44
2023-09-27T02:38:23.876Z,100362.53
2023-09-27T02:40:51.427Z,100358.72
2023-09-27T02:43:19.226Z,100360.44
2023-09-27T02:45:46.926Z,100363.16
2023-09-27T02:48:14.965Z,100363.38
2023-09-27T02:50:51.263Z,100357.06
2023-09-27T02:53:18.893Z,100355.78
2023-09-27T02:55:46.734Z,100352.22
2023-09-27T02:58:14.315Z,100363.38
2023-09-27T03:00:42.253Z,100367.19
2023-09-27T03:03:11.288Z,100359.81
2023-09-27T03:05:40.059Z,100366.59
2023-09-27T03:08:09.123Z,100362.78
2023-09-27T03:10:40.135Z,100374.81
2023-09-27T03:13:09.448Z,100364.91
2023-09-27T03:15:37.608Z,100371.25
2023-09-27T03:18:05.332Z,100355.31
2023-09-27T03:20:33.712Z,100366.34
2023-09-27T03:23:01.716Z,100365.75
2023-09-27T03:25:29.431Z,100358.59
2023-09-27T03:27:56.961Z,100358.00
2023-09-27T03:30:25.113Z,100355.87
2023-09-27T03:32:52.797Z,100361.00
2023-09-27T03:35:20.689Z,100361.56
2023-09-27T03:37:48.613Z,100350.62
2023-09-27T03:40:16.632Z,100358.84
2023-09-27T03:42:45.980Z,100364.56
2023-09-27T03:45:15.761Z,100362.03
2023-09-27T03:47:47.054Z,100363.94
2023-09-27T03:50:16.117Z,100366.94
2023-09-27T03:52:44.931Z,100362.03
2023-09-27T03:55:12.725Z,100361.19
2023-09-27T03:57:41.165Z,100361.81
2023-09-27T04:00:15.346Z,100363.34
2023-09-27T04:02:43.696Z,100365.09
2023-09-27T04:05:12.286Z,100361.75
2023-09-27T04:07:40.803Z,100363.91
2023-09-27T04:10:09.240Z,100357.47
2023-09-27T04:12:37.468Z,100363.91
2023-09-27T04:15:09.780Z,100362.13
2023-09-27T04:17:38.735Z,100363.78
2023-09-27T04:20:12.573Z,100360.09
2023-09-27T04:22:40.468Z,100362.22
2023-09-27T04:25:08.348Z,100361.38
2023-09-27T04:27:35.911Z,100357.22
2023-09-27T04:30:04.827Z,100367.53
2023-09-27T04:32:32.403Z,100360.41
2023-09-27T04:34:59.963Z,100372.16
2023-09-27T04:37:27.955Z,100373.47
2023-09-27T04:39:55.539Z,100377.44
2023-09-27T04:42:23.086Z,100374.84
2023-09-27T04:44:51.213Z,100374.34
2023-09-27T04:47:18.724Z,100371.72
2023-09-27T04:49:46.220Z,100369.44
2023-09-27T04:52:14.064Z,100378.72
2023-09-27T04:54:41.573Z,100377.88
2023-09-27T04:57:09.209Z,100386.31
2023-09-27T04:59:38.595Z,100376.34
2023-09-27T05:02:06.494Z,100381.12
2023-09-27T05:04:34.051Z,100376.50
2023-09-27T05:07:01.819Z,100380.69
2023-09-27T05:09:30.194Z,100373.53
2023-09-27T05:11:57.750Z,100376.25
2023-09-27T05:14:25.587Z,100382.34
2023-09-27T05:16:53.142Z,100382.09
2023-09-27T05:19:20.653Z,100386.16
2023-09-27T05:21:48.769Z,100385.28
2023-09-27T05:24:16.328Z,100385.09
2023-09-27T05:26:43.794Z,100390.06
2023-09-27T05:29:15.169Z,100388.41
2023-09-27T05:31:43.959Z,100381.28
2023-09-27T05:34:11.830Z,100383.41
2023-09-27T05:36:41.678Z,100392.22
2023-09-27T05:39:10.472Z,100399.59
2023-09-27T05:41:38.302Z,100402.31
2023-09-27T05:44:06.206Z,100401.25
2023-09-27T05:46:34.783Z,100397.09
2023-09-27T05:49:09.365Z,100400.88
2023-09-27T05:51:37.130Z,100410.16
2023-09-27T05:54:06.925Z,100401.94
2023-09-27T05:56:34.462Z,100409.31
2023-09-27T05:59:02.881Z,100408.47
2023-09-27T06:01:33.087Z,100410.59
2023-09-27T06:04:01.415Z,100418.81
2023-09-27T06:06:30.374Z,100420.94
2023-09-27T06:08:57.858Z,100416.53
2023-09-27T06:11:26.113Z,100418.44
2023-09-27T06:13:53.788Z,100420.34
2023-09-27T06:16:22.879Z,100425.81
2023-09-27T06:18:50.896Z,100421.38
2023-09-27T06:21:18.472Z,100428.56
2023-09-27T06:23:46.184Z,100430.66
2023-09-27T06:26:14.059Z,100427.94
2023-09-27T06:28:41.574Z,100442.44
2023-09-27T06:31:09.165Z,100447.06
2023-09-27T06:33:40.453Z,100445.41
2023-09-27T06:36:09.192Z,100449.22
2023-09-27T06:38:38.146Z,100454.69
2023-09-27T06:41:05.775Z,100456.59
2023-09-27T06:43:33.292Z,100453.84
2023-09-27T06:46:02.738Z,100464.78
2023-09-27T06:48:30.712Z,100459.31
2023-09-27T06:50:58.308Z,100471.09
2023-09-27T06:53:29.939Z,100470.47
2023-09-27T06:56:00.569Z,100473.19
2023-09-27T06:58:28.830Z,100475.94
2023-09-27T07:00:56.402Z,100477.84
2023-09-27T07:03:29.169Z,100471.78
2023-09-27T07:05:57.191Z,100468.66
2023-09-27T07:08:24.846Z,100467.66
2023-09-27T07:10:52.502Z,100474.34
2023-09-27T07:13:20.281Z,100472.06
2023-09-27T07:15:49.194Z,100469.09
2023-09-27T07:18:16.846Z,100470.53
2023-09-27T07:20:45.145Z,100481.09
2023-09-27T07:23:16.504Z,100483.22
2023-09-27T07:25:45.494Z,100482.00
2023-09-27T07:28:13.832Z,100474.63
2023-09-27T07:30:41.372Z,100486.41
2023-09-27T07:33:13.203Z,100487.69
2023-09-27T07:35:45.378Z,100488.91
2023-09-27T07:38:13.147Z,100482.59
2023-09-27T07:40:41.079Z,100487.47
2023-09-27T07:43:08.531Z,100487.09
2023-09-27T07:45:37.829Z,100485.34
2023-09-27T07:48:06.840Z,100493.69
2023-09-27T07:50:35.921Z,100492.19
2023-09-27T07:53:12.709Z,100493.25
2023-09-27T07:55:47.757Z,100493.00
2023-09-27T07:58:15.198Z,100491.13
2023-09-27T08:00:43.032Z,100483.75
2023-09-27T08:03:12.207Z,100493.84
2023-09-27T08:05:46.795Z,100495.53
2023-09-27T08:08:17.704Z,100493.63
2023-09-27T08:10:47.002Z,100499.94
2023-09-27T08:13:16.081Z,100508.16
2023-09-27T08:15:44.061Z,100505.19
2023-09-27T08:18:11.729Z,100503.50
2023-09-27T08:20:39.808Z,100504.34
2023-09-27T08:23:07.385Z,100511.72
2023-09-27T08:25:34.991Z,100507.91
2023-09-27T08:28:03.481Z,100503.28
2023-09-27T08:30:30.998Z,100507.66
2023-09-27T08:32:58.581Z,100502.19
2023-09-27T08:35:26.473Z,100503.28
2023-09-27T08:37:54.027Z,100501.37
2023-09-27T08:40:22.807Z,100503.28
2023-09-27T08:42:52.263Z,100501.37
2023-09-27T08:45:20.933Z,100502.00
2023-09-27T08:47:49.771Z,100509.38
2023-09-27T08:50:19.609Z,100508.97
2023-09-27T08:52:50.881Z,100514.28
2023-09-27T08:55:19.866Z,100504.63
2023-09-27T08:57:52.349Z,100504.03
2023-09-27T09:00:27.736Z,100504.03
2023-09-27T09:03:00.439Z,100506.97
2023-09-27T09:05:29.966Z,100509.69
2023-09-27T09:07:58.294Z,100501.75
2023-09-27T09:10:25.795Z,100496.28
2023-09-27T09:12:53.574Z,100499.00
2023-09-27T09:15:38.228Z,100496.28
2023-09-27T09:18:10.350Z,100495.19
2023-09-27T09:20:52.712Z,100499.84
2023-09-27T09:23:32.371Z,100495.19
2023-09-27T09:26:00.396Z,100490.56
2023-09-27T09:28:28.400Z,100496.91
2023-09-27T09:30:55.902Z,100488.06
2023-09-27T09:33:26.098Z,100489.72
2023-09-27T09:35:57.334Z,100488.06
2023-09-27T09:38:27.017Z,100490.56
2023-09-27T09:40:59.176Z,100489.72
2023-09-27T09:43:33.193Z,100491.44
2023-09-27T09:46:02.567Z,100486.78
2023-09-27T09:48:31.403Z,100478.59
2023-09-27T09:51:04.419Z,100475.78
2023-09-27T09:53:32.256Z,100476.56
2023-09-27T09:58:37.302Z,100475.03
2023-09-27T10:01:05.145Z,100473.12
2023-09-27T10:03:36.537Z,100475.62
2023-09-27T10:06:06.071Z,100478.97
2023-09-27T10:08:39.836Z,100476.22
2023-09-27T10:11:07.667Z,100480.41
2023-09-27T10:13:36.585Z,100478.28
2023-09-27T10:16:07.090Z,100475.78
2023-09-27T10:18:38.745Z,100471.16
2023-09-27T10:21:10.266Z,100471.53
2023-09-27T10:23:47.053Z,100474.03
2023-09-27T10:26:24.136Z,100467.50
2023-09-27T10:29:04.116Z,100467.03
2023-09-27T10:31:32.259Z,100463.22
2023-09-27T10:34:00.518Z,100460.97
2023-09-27T10:36:28.764Z,100458.84
2023-09-27T10:38:56.236Z,100457.75
2023-09-27T10:41:32.858Z,100456.50
2023-09-27T10:44:03.543Z,100459.38
2023-09-27T10:46:44.598Z,100457.47
2023-09-27T10:49:12.191Z,100460.81
2023-09-27T10:51:42.804Z,100455.69
2023-09-27T10:54:10.581Z,100448.56
2023-09-27T10:56:41.727Z,100447.97
2023-09-27T10:59:09.597Z,100438.94
2023-09-27T11:01:37.220Z,100434.66
2023-09-27T11:04:05.609Z,100425.41
2023-09-27T11:06:33.671Z,100422.03
2023-09-27T11:09:13.362Z,100415.97
2023-09-27T11:11:45.098Z,100410.72
2023-09-27T11:14:12.601Z,100414.13
2023-09-27T11:16:40.823Z,100404.34
2023-09-27T11:19:08.966Z,100410.88
2023-09-27T11:21:36.463Z,100404.34
2023-09-27T11:24:08.340Z,100407.91
2023-09-27T11:26:36.657Z,100410.19
2023-09-27T11:29:05.502Z,100404.94
2023-09-27T11:31:39.397Z,100400.06
2023-09-27T11:34:17.136Z,100401.12
2023-09-27T11:36:44.812Z,100392.06
2023-09-27T11:39:14.879Z,100389.13
2023-09-27T11:41:43.108Z,100393.53
2023-09-27T11:44:26.967Z,100389.72
2023-09-27T11:47:08.131Z,100385.72
2023-09-27T11:49:36.036Z,100383.81
2023-09-27T11:52:04.250Z,100373.47
2023-09-27T11:54:31.851Z,100377.28
2023-09-27T11:56:59.504Z,100370.72
2023-09-27T11:59:27.480Z,100368.00
2023-09-27T12:01:55.297Z,100375.13
2023-09-27T12:04:23.243Z,100371.81
2023-09-27T12:06:51.394Z,100352.66
2023-09-27T12:09:19.110Z,100353.47
2023-09-27T12:11:46.975Z,100355.37
2023-09-27T12:14:14.518Z,100353.03
2023-09-27T12:16:42.546Z,100357.66
2023-09-27T12:19:10.610Z,100352.78
2023-09-27T12:21:38.222Z,100344.12
2023-09-27T12:24:06.854Z,100342.41
2023-09-27T12:26:34.733Z,100343.28
2023-09-27T12:29:04.145Z,100337.56
2023-09-27T12:31:31.987Z,100333.75
2023-09-27T12:33:59.783Z,100332.69
2023-09-27T12:36:27.266Z,100331.84
2023-09-27T12:38:55.010Z,100331.63
2023-09-27T12:41:25.878Z,100327.19
2023-09-27T12:43:53.505Z,100320.91
2023-09-27T12:46:21.096Z,100322.09
2023-09-27T12:48:49.015Z,100316.62
2023-09-27T12:51:16.511Z,100309.75
2023-09-27T12:53:45.093Z,100308.66
2023-09-27T12:56:15.013Z,100303.41
2023-09-27T12:58:45.460Z,100304.25
2023-09-27T13:01:17.731Z,100305.31
2023-09-27T13:03:45.613Z,100303.66
2023-09-27T13:06:14.216Z,100300.66
2023-09-27T13:08:41.810Z,100299.25
2023-09-27T13:11:10.947Z,100288.31
2023-09-27T13:13:38.736Z,100288.31
2023-09-27T13:16:06.314Z,100291.03
2023-09-27T13:18:33.908Z,100282.00
2023-09-27T13:21:01.985Z,100279.25
2023-09-27T13:23:29.540Z,100280.09
2023-09-27T13:25:57.835Z,100281.75
2023-09-27T13:28:25.609Z,100277.34
2023-09-27T13:30:53.473Z,100274.63
2023-09-27T13:33:21.228Z,100272.97
2023-09-27T13:35:49.560Z,100269.97
2023-09-27T13:38:17.842Z,100272.47
2023-09-27T13:40:45.605Z,100272.25
2023-09-27T13:43:13.540Z,100266.53
2023-09-27T13:45:41.109Z,100267.59
2023-09-27T13:48:08.791Z,100262.12
2023-09-27T13:50:37.180Z,100263.78
2023-09-27T13:53:05.048Z,100264.88
2023-09-27T13:55:32.683Z,100259.59
2023-09-27T13:58:00.480Z,100256.03
2023-09-27T14:00:27.986Z,100257.13
2023-09-27T14:02:56.189Z,100257.13
2023-09-27T14:05:23.935Z,100256.03
2023-09-27T14:07:51.574Z,100257.37
2023-09-27T14:10:20.426Z,100254.63
2023-09-27T14:12:48.074Z,100249.25
2023-09-27T14:15:16.587Z,100249.63
2023-09-27T14:17:44.703Z,100249.38
2023-09-27T14:20:15.886Z,100247.34
2023-09-27T14:22:45.188Z,100238.22
2023-09-27T14:25:13.808Z,100247.72
2023-09-27T14:27:41.602Z,100241.41
2023-09-27T14:30:11.103Z,100235.69
2023-09-27T14:32:40.606Z,100232.75
2023-09-27T14:35:08.809Z,100225.59
2023-09-27T14:37:36.782Z,100224.41
2023-09-27T14:40:10.431Z,100235.22
2023-09-27T14:42:38.929Z,100220.25
2023-09-27T14:45:13.570Z,100227.37
2023-09-27T14:47:53.729Z,100226.44
2023-09-27T14:50:21.354Z,100217.63
2023-09-27T14:52:49.183Z,100215.72
2023-09-27T14:55:19.026Z,100218.94
2023-09-27T14:57:46.969Z,100215.59
2023-09-27T15:00:15.021Z,100221.56
2023-09-27T15:02:44.132Z,100213.94
2023-09-27T15:05:12.562Z,100214.66
2023-09-27T15:07:40.430Z,100216.81
2023-09-27T15:10:08.790Z,100211.78
2023-09-27T15:12:36.309Z,100215.97
2023-09-27T15:15:07.386Z,100214.53
2023-09-27T15:17:41.663Z,100206.31
2023-09-27T15:20:10.538Z,100206.91
2023-09-27T15:22:39.783Z,100207.41
2023-09-27T15:25:08.394Z,100212.63
2023-09-27T15:27:36.174Z,100213.94
2023-09-27T15:30:03.843Z,100206.19
2023-09-27T15:32:32.672Z,100210.72
2023-09-27T15:35:00.650Z,100211.78
2023-09-27T15:37:28.147Z,100210.13
2023-09-27T15:39:55.896Z,100203.59
2023-09-27T15:42:23.622Z,100205.50
2023-09-27T15:44:51.229Z,100204.66
2023-09-27T15:47:18.779Z,100205.75
2023-09-27T15:49:46.543Z,100212.25
2023-09-27T15:52:14.211Z,100205.12
2023-09-27T15:54:43.052Z,100213.09
2023-09-27T15:57:10.931Z,100208.09
2023-09-27T15:59:39.378Z,100203.34
2023-09-27T16:02:06.892Z,100205.50
2023-09-27T16:04:42.174Z,100205.94
2023-09-27T16:07:18.857Z,100203.47
2023-09-27T16:09:47.238Z,100205.59
2023-09-27T16:12:14.841Z,100210.00
2023-09-27T16:14:42.365Z,100210.22
2023-09-27T16:17:10.207Z,100207.75
2023-09-27T16:19:38.121Z,100210.72
2023-09-27T16:22:05.710Z,100212.03
2023-09-27T16:24:33.548Z,100205.97
2023-09-27T16:27:01.367Z,100208.69
2023-09-27T16:29:28.943Z,100208.09
2023-09-27T16:31:58.543Z,100208.91
2023-09-27T16:34:26.622Z,100212.50
2023-09-27T16:36:54.241Z,100219.84
2023-09-27T16:39:22.689Z,100214.59
2023-09-27T16:41:51.041Z,100220.06
2023-09-27T16:44:18.651Z,100209.38
2023-09-27T16:46:47.269Z,100212.12
2023-09-27T16:49:14.810Z,100208.53
2023-09-27T16:51:42.401Z,100214.22
2023-09-27T16:54:10.268Z,100219.72
2023-09-27T16:56:37.855Z,100210.66
2023-09-27T16:59:06.185Z,100207.34
2023-09-27T17:01:35.252Z,100211.16
2023-09-27T17:04:03.326Z,100215.56
2023-09-27T17:06:31.173Z,100214.94
2023-09-27T17:08:59.446Z,100219.59
2023-09-27T17:11:28.493Z,100215.19
2023-09-27T17:13:57.424Z,100222.56
2023-09-27T17:16:30.591Z,100227.78
2023-09-27T17:19:01.057Z,100219.00
2023-09-27T17:21:30.400Z,100221.94
2023-09-27T17:23:59.356Z,100222.56
2023-09-27T17:26:27.687Z,100226.38
2023-09-27T17:28:57.203Z,100221.94
2023-09-27T17:31:26.701Z,100227.41
2023-09-27T17:33:55.653Z,100229.56
2023-09-27T17:36:24.491Z,100233.13
2023-09-27T17:38:52.669Z,100232.31
2023-09-27T17:41:21.119Z,100226.00
2023-09-27T17:43:49.588Z,100229.56
2023-09-27T17:46:30.853Z,100229.81
2023-09-27T17:49:01.154Z,100231.47
2023-09-27T17:51:31.069Z,100232.31
2023-09-27T17:54:04.254Z,100236.13
2023-09-27T17:56:33.575Z,100226.84
2023-09-27T17:59:02.919Z,100233.13
2023-09-27T18:01:32.249Z,100229.81
2023-09-27T18:04:02.594Z,100232.69
2023-09-27T18:06:31.877Z,100229.31
2023-09-27T18:09:01.458Z,100235.41
2023-09-27T18:11:29.974Z,100226.38
2023-09-27T18:13:59.047Z,100228.28
2023-09-27T18:16:29.556Z,100223.63
2023-09-27T18:18:58.701Z,100231.84
2023-09-27T18:21:29.445Z,100222.81
2023-09-27T18:23:58.584Z,100222.81
2023-09-27T18:26:27.493Z,100220.06
2023-09-27T18:28:55.883Z,100225.31
2023-09-27T18:31:28.577Z,100223.41
2023-09-27T18:34:02.623Z,100220.66
2023-09-27T18:36:31.828Z,100217.69
2023-09-27T18:39:02.066Z,100223.16
2023-09-27T18:41:33.440Z,100223.16
2023-09-27T18:44:04.755Z,100220.66
2023-09-27T18:46:38.432Z,100214.13
2023-09-27T18:49:07.615Z,100233.25
2023-09-27T18:51:36.812Z,100232.19
2023-09-27T18:54:08.105Z,100228.62
2023-09-27T18:56:40.253Z,100227.78
2023-09-27T18:59:11.432Z,100223.97
2023-09-27T19:01:42.539Z,100227.56
2023-09-27T19:04:12.028Z,100226.50
2023-09-27T19:06:42.994Z,100224.34
2023-09-27T19:09:14.062Z,100219.72
2023-09-27T19:11:44.742Z,100221.84
2023-09-27T19:14:14.482Z,100218.88
2023-09-27T19:16:43.931Z,100227.09
2023-09-27T19:19:13.395Z,100228.44
2023-09-27T19:21:43.042Z,100229.59
2023-09-27T19:24:12.267Z,100227.91
2023-09-27T19:26:41.719Z,100232.56
2023-09-27T19:29:12.990Z,100236.13
2023-09-27T19:31:42.123Z,100235.28
2023-09-27T19:34:11.131Z,100236.13
2023-09-27T19:36:39.923Z,100233.37
2023-09-27T19:39:09.841Z,100234.84
2023-09-27T19:41:39.810Z,100235.06
2023-09-27T19:44:10.378Z,100236.94
2023-09-27T19:46:39.386Z,100232.56
2023-09-27T19:49:08.881Z,100232.81
2023-09-27T19:51:38.695Z,100231.72
2023-09-27T19:54:08.334Z,100227.91
2023-09-27T19:56:37.493Z,100229.00
2023-09-27T19:59:07.688Z,100226.25
2023-09-27T20:01:35.844Z,100226.25
2023-09-27T20:04:05.167Z,100223.53
2023-09-27T20:06:38.034Z,100220.19
2023-09-27T20:09:09.787Z,100227.34
2023-09-27T20:11:38.663Z,100226.50
2023-09-27T20:14:06.975Z,100223.53
2023-09-27T20:16:35.210Z,100223.53
2023-09-27T20:19:05.459Z,100218.28
2023-09-27T20:21:36.155Z,100218.88
2023-09-27T20:24:04.220Z,100219.13
2023-09-27T20:26:32.364Z,100219.41
2023-09-27T20:29:00.533Z,100228.75
2023-09-27T20:31:28.520Z,100213.91
2023-09-27T20:33:56.192Z,100220.19
2023-09-27T20:36:24.107Z,100224.84
2023-09-27T20:38:52.000Z,100220.41
2023-09-27T20:41:21.108Z,100221.25
2023-09-27T20:43:49.306Z,100215.56
2023-09-27T20:46:16.985Z,100224.59
2023-09-27T20:48:44.565Z,100220.53
2023-09-27T20:51:12.421Z,100222.09
2023-09-27T20:53:39.897Z,100216.84
2023-09-27T20:56:08.005Z,100221.50
2023-09-27T20:58:36.390Z,100214.94
2023-09-27T21:01:08.362Z,100213.91
2023-09-27T21:03:37.634Z,100216.03
2023-09-27T21:06:06.083Z,100219.00
2023-09-27T21:08:33.688Z,100220.06
2023-09-27T21:11:01.721Z,100213.53
2023-09-27T21:13:29.264Z,100209.84
2023-09-27T21:15:56.856Z,100212.44
2023-09-27T21:18:26.443Z,100207.44
2023-09-27T21:20:54.128Z,100201.12
2023-09-27T21:23:21.601Z,100202.22
2023-09-27T21:25:49.391Z,100205.53
2023-09-27T21:28:16.890Z,100203.03
2023-09-27T21:30:44.349Z,100198.41
2023-09-27T21:33:12.244Z,100197.81
2023-09-27T21:35:39.867Z,100198.91
2023-09-27T21:38:07.796Z,100193.44
2023-09-27T21:40:35.977Z,100199.94
2023-09-27T21:43:03.595Z,100204.38
2023-09-27T21:45:32.187Z,100206.50
2023-09-27T21:48:00.063Z,100203.75
2023-09-27T21:50:27.892Z,100217.44
2023-09-27T21:52:55.409Z,100214.44
2023-09-27T21:55:23.473Z,100217.19
2023-09-27T21:57:56.684Z,100209.22
2023-09-27T22:00:29.900Z,100206.50
2023-09-27T22:03:00.778Z,100197.81
2023-09-27T22:05:29.036Z,100201.84
2023-09-27T22:07:56.629Z,100202.09
2023-09-27T22:10:28.399Z,100203.75
2023-09-27T22:12:55.965Z,100198.53
2023-09-27T22:15:34.506Z,100200.44
2023-09-27T22:18:02.277Z,100197.09
2023-09-27T22:20:31.038Z,100193.28
2023-09-27T22:23:01.437Z,100196.25
2023-09-27T22:25:29.074Z,100194.97
2023-09-27T22:27:58.565Z,100194.97
2023-09-27T22:30:26.093Z,100194.13
2023-09-27T22:32:53.633Z,100193.06
2023-09-27T22:35:28.263Z,100194.97
2023-09-27T22:37:58.628Z,100199.59
2023-09-27T22:40:26.408Z,100191.41
2023-09-27T22:42:53.939Z,100199.34
2023-09-27T22:45:32.599Z,100191.97
2023-09-27T22:48:00.505Z,100195.19
2023-09-27T22:50:31.684Z,100187.22
2023-09-27T22:52:59.421Z,100194.72
2023-09-27T22:55:29.965Z,100192.69
2023-09-27T22:57:57.804Z,100188.66
2023-09-27T23:00:26.337Z,100188.28
2023-09-27T23:02:57.159Z,100188.06
2023-09-27T23:05:34.106Z,100193.75
2023-09-27T23:08:10.579Z,100179.47
2023-09-27T23:10:39.095Z,100183.66
2023-09-27T23:13:07.194Z,100186.63
2023-09-27T23:15:43.808Z,100192.31
2023-09-27T23:18:15.053Z,100186.84
2023-09-27T23:20:43.555Z,100186.63
2023-09-27T23:23:17.337Z,100190.66
2023-09-27T23:25:44.978Z,100184.72
2023-09-27T23:28:28.627Z,100187.09
2023-09-27T23:31:09.582Z,100187.09
2023-09-27T23:33:50.999Z,100185.19
2023-09-27T23:36:25.329Z,100178.31
2023-09-27T23:39:04.658Z,100184.94
2023-09-27T23:41:32.441Z,100182.69
2023-09-27T23:44:09.891Z,100180.56
2023-09-27T23:46:41.190Z,100174.50
2023-09-27T23:49:17.274Z,100176.16
2023-09-27T23:51:45.042Z,100169.25
2023-09-27T23:54:13.449Z,100167.38
2023-09-27T23:56:40.952Z,100166.28
2023-09-27T23:59:21.227Z,100178.31
